Time;durP1;ratioP1;P1;durP2;ratioP2;P2;SDS_P1;SDS_P2;PMS_P1;PMS_P2;Temp;Humidity;BMP_temperature;BMP_pressure;BME280_temperature;BME280_humidity;BME280_pressure;Samples;Min_cycle;Max_cycle;Signal;HPM_P1;HPM_P2
2021/09/06 00:01:36;;;;;;;3.30;2.50;;;;;;;20.90;66.02;102034.97;4988675;28;103726;-47
2021/09/06 00:04:03;;;;;;;3.78;2.45;;;;;;;20.90;66.21;102037.75;4990658;28;102253;-47
2021/09/06 00:06:31;;;;;;;3.38;2.25;;;;;;;20.90;65.96;102034.16;4989832;28;102435;-46
2021/09/06 00:09:09;;;;;;;5.32;2.72;;;;;;;20.88;65.78;102032.53;4989341;28;102383;-46
2021/09/06 00:11:36;;;;;;;2.65;2.42;;;;;;;20.90;66.34;102034.97;4986827;28;103730;-46
2021/09/06 00:14:17;;;;;;;3.05;2.40;;;;;;;20.89;66.13;102030.56;4983587;28;102552;-46
2021/09/06 00:16:47;;;;;;;2.40;2.13;;;;;;;20.89;66.10;102027.81;4987444;28;102214;-48
2021/09/06 00:19:14;;;;;;;3.35;2.58;;;;;;;20.88;66.16;102038.06;4981786;28;102844;-46
2021/09/06 00:21:44;;;;;;;2.83;2.20;;;;;;;20.90;66.23;102039.69;4983170;28;103941;-46
2021/09/06 00:24:10;;;;;;;3.23;2.53;;;;;;;20.90;66.14;102045.22;4984172;28;102632;-47
2021/09/06 00:26:38;;;;;;;2.97;2.35;;;;;;;20.90;66.13;102042.47;4980922;28;102272;-46
2021/09/06 00:29:05;;;;;;;2.85;2.13;;;;;;;20.88;66.19;102040.81;4984279;28;103327;-46
2021/09/06 00:31:35;;;;;;;2.65;2.15;;;;;;;20.90;66.43;102045.22;4987403;28;103839;-47
2021/09/06 00:34:08;;;;;;;3.47;2.40;;;;;;;20.88;66.36;102051.09;4986846;28;102973;-46
2021/09/06 00:36:35;;;;;;;2.10;1.90;;;;;;;20.88;66.38;102043.59;4987271;28;102814;-46
2021/09/06 00:39:03;;;;;;;2.63;2.10;;;;;;;20.88;66.35;102040.81;4987541;28;102228;-46
2021/09/06 00:41:29;;;;;;;3.07;2.47;;;;;;;20.88;66.50;102049.13;4983998;28;104020;-47
2021/09/06 00:43:56;;;;;;;2.65;2.30;;;;;;;20.88;66.42;102048.31;4987181;28;102281;-48
2021/09/06 00:46:24;;;;;;;4.93;2.20;;;;;;;20.88;66.41;102051.09;4993946;28;102343;-48
2021/09/06 00:48:51;;;;;;;4.38;2.17;;;;;;;20.88;66.49;102048.31;5004956;28;102159;-46
2021/09/06 00:51:18;;;;;;;2.88;2.45;;;;;;;20.88;66.51;102059.38;5003533;28;103935;-46
2021/09/06 00:53:45;;;;;;;2.95;2.30;;;;;;;20.87;66.53;102055.78;5004189;28;101796;-45
2021/09/06 00:56:17;;;;;;;5.82;2.80;;;;;;;20.88;66.58;102054.66;4990280;28;101748;-47
2021/09/06 00:58:45;;;;;;;2.38;1.95;;;;;;;20.88;66.41;102048.31;4987912;28;102839;-46
2021/09/06 01:01:11;;;;;;;3.50;2.40;;;;;;;20.87;66.36;102053.00;4987497;28;104044;-46
2021/09/06 01:03:38;;;;;;;3.42;2.63;;;;;;;20.88;66.49;102053.84;4986718;28;106023;-46
2021/09/06 01:06:04;;;;;;;2.92;2.22;;;;;;;20.87;66.65;102047.47;4986615;28;102540;-48
2021/09/06 01:08:31;;;;;;;3.35;2.47;;;;;;;20.87;66.50;102053.00;4986703;28;102349;-47
2021/09/06 01:10:58;;;;;;;3.88;2.40;;;;;;;20.87;66.46;102053.00;4985810;28;102707;-46
2021/09/06 01:13:26;;;;;;;2.90;2.60;;;;;;;20.87;66.50;102068.78;4987665;28;102565;-46
2021/09/06 01:15:55;;;;;;;2.75;2.20;;;;;;;20.86;66.50;102059.69;4988565;28;103177;-46
2021/09/06 01:18:22;;;;;;;3.80;2.40;;;;;;;20.86;66.63;102067.97;4998268;28;102741;-45
2021/09/06 01:20:49;;;;;;;3.25;2.33;;;;;;;20.87;66.53;102064.06;4990760;28;103794;-46
2021/09/06 01:23:15;;;;;;;2.97;2.40;;;;;;;20.85;66.68;102060.81;4988017;28;102290;-47
2021/09/06 01:25:42;;;;;;;3.20;2.55;;;;;;;20.85;66.70;102058.03;4985487;28;102900;-48
2021/09/06 01:28:09;;;;;;;3.92;2.10;;;;;;;20.86;66.61;102061.63;4988879;28;102839;-46
2021/09/06 01:30:37;;;;;;;3.10;2.30;;;;;;;20.85;66.60;102066.34;4981182;28;103874;-48
2021/09/06 01:33:05;;;;;;;3.30;2.30;;;;;;;20.84;66.97;102059.19;4985448;28;102178;-48
2021/09/06 01:35:31;;;;;;;3.83;2.67;;;;;;;20.85;66.61;102071.06;4987636;28;102042;-46
2021/09/06 01:37:58;;;;;;;3.63;2.22;;;;;;;20.84;66.65;102059.19;4987966;28;102671;-47
2021/09/06 01:40:25;;;;;;;2.80;2.50;;;;;;;20.85;66.63;102066.34;4999115;28;103405;-48
2021/09/06 01:42:52;;;;;;;3.05;2.25;;;;;;;20.85;66.67;102066.34;4986763;28;105400;-48
2021/09/06 01:45:21;;;;;;;3.17;2.15;;;;;;;20.84;66.67;102064.72;4981701;28;102620;-46
2021/09/06 01:47:47;;;;;;;2.67;2.40;;;;;;;20.84;66.75;102064.72;4988160;28;102416;-47
2021/09/06 01:50:15;;;;;;;3.60;2.50;;;;;;;20.83;66.56;102067.78;4987930;28;105211;-46
2021/09/06 01:52:41;;;;;;;3.75;2.65;;;;;;;20.83;66.57;102071.34;4992982;28;102443;-47
2021/09/06 01:55:08;;;;;;;4.13;2.47;;;;;;;20.83;66.62;102073.31;4989765;28;102634;-47
2021/09/06 01:57:35;;;;;;;5.22;2.38;;;;;;;20.83;66.83;102076.88;4987896;28;102781;-48
2021/09/06 02:00:02;;;;;;;4.32;2.40;;;;;;;20.83;66.66;102073.31;4983924;28;103979;-48
2021/09/06 02:02:29;;;;;;;2.67;2.47;;;;;;;20.82;66.49;102078.03;4963827;28;102353;-47
2021/09/06 02:04:57;;;;;;;2.90;2.60;;;;;;;20.83;66.54;102079.66;4983247;28;103443;-47
2021/09/06 02:07:24;;;;;;;2.75;2.45;;;;;;;20.83;66.82;102084.38;4994092;28;102543;-46
2021/09/06 02:09:50;;;;;;;3.92;2.70;;;;;;;20.82;66.66;102083.56;4967840;28;103848;-46
2021/09/06 02:12:17;;;;;;;2.78;2.40;;;;;;;20.82;66.70;102079.97;4986380;28;102569;-48
2021/09/06 02:14:46;;;;;;;3.05;2.40;;;;;;;20.82;66.63;102083.56;4983324;28;102529;-46
2021/09/06 02:17:13;;;;;;;3.15;2.30;;;;;;;20.82;66.71;102086.31;4969927;28;102661;-45
2021/09/06 02:19:41;;;;;;;3.00;2.20;;;;;;;20.81;66.71;102084.69;4983215;28;103914;-46
2021/09/06 02:22:08;;;;;;;3.22;2.40;;;;;;;20.81;66.80;102087.47;4987961;28;102600;-48
2021/09/06 02:24:35;;;;;;;3.40;2.63;;;;;;;20.81;66.73;102093.00;4985095;28;103354;-48
2021/09/06 02:27:02;;;;;;;3.60;2.47;;;;;;;20.81;66.84;102093.00;4988328;28;102284;-46
2021/09/06 02:29:28;;;;;;;2.95;2.30;;;;;;;20.81;66.78;102093.00;4983899;28;103744;-46
2021/09/06 02:31:55;;;;;;;3.13;2.70;;;;;;;20.81;66.76;102087.47;4986394;28;102455;-46
2021/09/06 02:34:21;;;;;;;3.17;2.60;;;;;;;20.81;66.86;102087.47;4981920;28;102578;-46
2021/09/06 02:36:50;;;;;;;3.72;3.00;;;;;;;20.81;66.88;102092.19;4986525;28;102208;-45
2021/09/06 02:39:16;;;;;;;4.22;3.08;;;;;;;20.80;66.66;102091.34;4983498;28;103953;-47
2021/09/06 02:41:43;;;;;;;3.33;2.60;;;;;;;20.79;66.59;102092.47;4984071;28;102383;-46
2021/09/06 02:44:09;;;;;;;3.78;2.63;;;;;;;20.79;66.62;102100.78;4984016;28;102166;-46
2021/09/06 02:46:36;;;;;;;3.55;2.38;;;;;;;20.79;66.60;102100.78;4985985;28;102302;-47
2021/09/06 02:49:04;;;;;;;2.72;2.25;;;;;;;20.79;66.75;102106.31;4991585;28;104077;-49
2021/09/06 02:51:30;;;;;;;3.95;2.72;;;;;;;20.79;66.72;102099.94;5001750;28;102019;-48
2021/09/06 02:53:58;;;;;;;3.22;2.60;;;;;;;20.78;66.89;102103.84;4992205;28;102690;-52
2021/09/06 02:56:26;;;;;;;3.42;2.50;;;;;;;20.78;66.79;102099.13;4999306;28;102136;-48
2021/09/06 02:58:54;;;;;;;3.05;2.70;;;;;;;20.79;66.75;102105.47;4983142;28;103894;-49
2021/09/06 03:01:20;;;;;;;2.78;2.40;;;;;;;20.78;66.88;102099.13;4986602;28;102201;-47
2021/09/06 03:03:46;;;;;;;3.30;2.40;;;;;;;20.78;66.82;102110.19;4986979;28;102222;-49
2021/09/06 03:06:14;;;;;;;3.15;2.83;;;;;;;20.78;66.66;102115.75;4988204;28;102686;-48
2021/09/06 03:08:40;;;;;;;3.28;2.38;;;;;;;20.78;66.80;102112.97;4986724;28;104014;-47
2021/09/06 03:11:08;;;;;;;2.72;2.30;;;;;;;20.78;66.79;102110.19;4991196;28;102534;-49
2021/09/06 03:13:35;;;;;;;3.30;2.70;;;;;;;20.78;66.85;102114.91;4987020;28;102944;-48
2021/09/06 03:16:02;;;;;;;3.72;2.33;;;;;;;20.77;66.73;102119.63;4995063;28;102829;-47
2021/09/06 03:18:29;;;;;;;3.17;2.72;;;;;;;20.76;66.71;102112.44;4992135;28;104282;-50
2021/09/06 03:20:56;;;;;;;3.80;3.15;;;;;;;20.76;66.65;102117.97;4991296;28;102653;-48
2021/09/06 03:23:23;;;;;;;3.20;2.60;;;;;;;20.77;66.85;102127.09;4988768;28;102480;-47
2021/09/06 03:25:50;;;;;;;3.40;2.30;;;;;;;20.76;66.67;102125.47;4986681;28;102486;-47
2021/09/06 03:28:18;;;;;;;3.20;2.63;;;;;;;20.77;66.71;102135.38;4985844;28;104223;-47
2021/09/06 03:30:45;;;;;;;3.38;2.55;;;;;;;20.75;66.83;102132.13;4999876;28;102225;-47
2021/09/06 03:33:14;;;;;;;4.40;2.92;;;;;;;20.75;66.71;102138.47;4987251;28;102301;-46
2021/09/06 03:35:40;;;;;;;;;;;;;;;20.76;66.73;102145.63;4987453;28;103331;-45
2021/09/06 03:38:07;;;;;;;2.97;2.58;;;;;;;20.75;66.84;102138.47;4986740;28;103031;-46
2021/09/06 03:40:33;;;;;;;3.42;2.58;;;;;;;20.75;66.78;102144.00;4984280;28;102522;-47
2021/09/06 03:43:00;;;;;;;3.35;2.40;;;;;;;20.75;66.69;102152.31;4986566;28;102252;-46
2021/09/06 03:45:28;;;;;;;3.22;2.72;;;;;;;20.75;66.87;102155.06;4984909;28;102878;-46
2021/09/06 03:47:55;;;;;;;3.90;2.55;;;;;;;20.75;66.82;102148.72;4981567;28;103928;-46
2021/09/06 03:50:21;;;;;;;3.05;2.65;;;;;;;20.75;66.96;102154.25;4985575;28;102181;-46
2021/09/06 03:52:48;;;;;;;4.40;2.53;;;;;;;20.75;67.07;102157.84;4984682;28;102308;-46
2021/09/06 03:55:15;;;;;;;3.67;2.50;;;;;;;20.75;66.92;102155.06;4984080;28;102130;-47
2021/09/06 03:57:42;;;;;;;2.78;2.38;;;;;;;20.74;67.07;102153.44;4984964;28;103935;-46
2021/09/06 04:00:09;;;;;;;3.47;2.50;;;;;;;20.75;67.21;102152.31;4979890;28;102278;-46
2021/09/06 04:02:37;;;;;;;2.55;2.17;;;;;;;20.74;67.20;102152.63;4974923;28;102601;-48
2021/09/06 04:05:04;;;;;;;4.43;2.87;;;;;;;20.74;67.15;102161.75;4986166;28;102946;-50
2021/09/06 04:07:31;;;;;;;2.70;2.40;;;;;;;20.74;67.14;102153.44;4986292;28;104070;-46
2021/09/06 04:09:57;;;;;;;3.17;2.75;;;;;;;20.74;66.99;102158.97;4983929;28;102183;-48
2021/09/06 04:12:24;;;;;;;3.05;2.50;;;;;;;20.75;66.76;102155.06;4985575;28;102450;-48
2021/09/06 04:14:51;;;;;;;2.88;2.30;;;;;;;20.73;67.17;102162.84;4985410;28;102170;-47
2021/09/06 04:17:18;;;;;;;3.08;2.30;;;;;;;20.73;67.09;102162.84;4988327;28;104935;-46
2021/09/06 04:19:57;;;;;;;3.13;2.73;;;;;;;20.73;66.99;102168.38;4977681;28;102484;-46
2021/09/06 04:22:23;;;;;;;3.53;2.58;;;;;;;20.74;67.08;102172.81;4990757;28;102242;-47
2021/09/06 04:24:50;;;;;;;3.78;2.60;;;;;;;20.74;67.08;102181.09;4984849;28;103343;-46
2021/09/06 04:27:18;;;;;;;3.28;2.80;;;;;;;20.72;67.14;102171.47;4988845;28;104412;-46
2021/09/06 04:29:44;;;;;;;2.90;2.60;;;;;;;20.73;67.20;102179.44;4987861;28;102484;-49
2021/09/06 04:32:10;;;;;;;3.70;2.75;;;;;;;20.73;67.19;102176.69;4988920;28;102316;-49
2021/09/06 04:34:38;;;;;;;3.28;2.70;;;;;;;20.73;67.28;102171.16;4988255;28;103023;-46
2021/09/06 04:37:07;;;;;;;3.90;2.83;;;;;;;20.73;67.20;102173.09;4986925;28;102930;-47
2021/09/06 04:39:33;;;;;;;3.20;2.42;;;;;;;20.73;67.21;102179.44;4986730;28;106337;-46
2021/09/06 04:41:59;;;;;;;2.85;2.55;;;;;;;20.74;67.21;102174.75;4981676;28;102123;-48
2021/09/06 04:44:26;;;;;;;3.30;2.50;;;;;;;20.73;67.11;102179.44;4988616;28;102751;-46
2021/09/06 04:46:53;;;;;;;3.38;2.65;;;;;;;20.74;67.31;102180.28;4987198;28;103870;-46
2021/09/06 04:49:20;;;;;;;3.92;2.92;;;;;;;20.73;67.16;102184.16;4988248;28;102566;-47
2021/09/06 04:51:46;;;;;;;2.60;2.28;;;;;;;20.74;67.20;102185.81;4998171;28;103972;-47
2021/09/06 04:54:16;;;;;;;3.78;3.15;;;;;;;20.73;67.31;102182.22;4991059;28;102768;-46
2021/09/06 04:56:43;;;;;;;4.28;2.92;;;;;;;20.72;67.25;102183.34;4988224;28;103912;-48
2021/09/06 04:59:11;;;;;;;3.47;2.88;;;;;;;20.73;66.98;102181.41;4986596;28;105207;-47
2021/09/06 05:01:37;;;;;;;3.63;2.72;;;;;;;20.74;67.19;102192.19;4977706;28;102778;-48
2021/09/06 05:04:04;;;;;;;3.90;2.63;;;;;;;20.72;67.27;102175.03;4979823;28;102460;-48
2021/09/06 05:06:31;;;;;;;4.95;2.83;;;;;;;20.73;67.06;102170.34;4986323;28;105364;-47
2021/09/06 05:08:58;;;;;;;3.88;2.72;;;;;;;20.73;67.31;102173.09;4988109;28;102651;-46
2021/09/06 05:11:30;;;;;;;3.10;2.70;;;;;;;20.72;67.23;102177.81;4970248;28;102484;-46
2021/09/06 05:13:57;;;;;;;4.50;3.03;;;;;;;20.72;67.07;102180.59;4989638;28;102716;-46
2021/09/06 05:16:24;;;;;;;3.70;2.53;;;;;;;20.72;67.01;102179.75;4980117;28;104015;-46
2021/09/06 05:18:50;;;;;;;3.40;2.42;;;;;;;20.72;67.12;102182.53;4977308;28;102418;-47
2021/09/06 05:21:17;;;;;;;4.20;2.75;;;;;;;20.71;66.97;102187.25;4977273;28;103900;-47
2021/09/06 05:23:46;;;;;;;3.45;2.60;;;;;;;20.72;67.09;102190.84;4977728;28;102646;-47
2021/09/06 05:26:13;;;;;;;4.13;3.03;;;;;;;20.72;67.14;102191.66;4976739;28;103735;-47
2021/09/06 05:28:42;;;;;;;3.85;2.97;;;;;;;20.71;67.11;102192.78;4976348;28;102591;-46
2021/09/06 05:31:10;;;;;;;3.53;2.70;;;;;;;20.71;67.15;102192.78;4972863;28;102707;-47
2021/09/06 05:33:37;;;;;;;4.47;3.07;;;;;;;20.71;67.04;102198.31;4979790;28;107217;-46
2021/09/06 05:36:05;;;;;;;5.25;2.80;;;;;;;20.71;66.97;102192.78;4978317;28;103616;-48
2021/09/06 05:38:31;;;;;;;3.43;3.00;;;;;;;20.72;66.91;102193.59;4978648;28;102333;-47
2021/09/06 05:40:58;;;;;;;3.00;2.70;;;;;;;20.73;66.88;102195.22;4976162;28;102639;-46
2021/09/06 05:43:25;;;;;;;3.92;2.53;;;;;;;20.72;66.85;102183.34;4977996;28;102689;-46
2021/09/06 05:45:52;;;;;;;3.40;2.38;;;;;;;20.73;66.78;102195.22;4973888;28;104819;-47
2021/09/06 05:48:19;;;;;;;5.05;2.97;;;;;;;20.73;67.01;102193.28;4976410;28;102668;-47
2021/09/06 05:50:47;;;;;;;5.80;3.20;;;;;;;20.74;66.85;102203.25;4977466;28;103068;-47
2021/09/06 05:53:15;;;;;;;4.00;3.30;;;;;;;20.74;66.77;102197.72;4978767;28;102644;-46
2021/09/06 05:55:42;;;;;;;3.65;2.88;;;;;;;20.74;66.66;102199.66;4976721;28;104080;-47
2021/09/06 05:58:09;;;;;;;2.80;2.50;;;;;;;20.74;66.92;102206.00;4977472;28;102496;-46
2021/09/06 06:00:36;;;;;;;4.28;2.70;;;;;;;20.75;66.83;102204.88;4976329;28;102701;-47
2021/09/06 06:03:04;;;;;;;3.17;2.63;;;;;;;20.75;66.85;102210.41;4978614;28;102947;-46
2021/09/06 06:05:31;;;;;;;2.63;2.42;;;;;;;20.76;66.82;102211.22;4975792;28;103893;-46
2021/09/06 06:07:58;;;;;;;3.95;2.63;;;;;;;20.76;66.89;102212.03;4975855;28;102751;-46
2021/09/06 06:10:25;;;;;;;3.83;2.45;;;;;;;20.77;66.82;102213.72;4977544;28;102479;-46
2021/09/06 06:12:51;;;;;;;2.67;2.40;;;;;;;20.76;66.70;102214.00;4976901;28;102866;-46
2021/09/06 06:15:18;;;;;;;4.72;2.70;;;;;;;20.77;66.81;102213.72;4972838;28;104179;-46
2021/09/06 06:17:45;;;;;;;3.45;2.78;;;;;;;20.77;66.81;102213.72;4985150;28;102671;-47
2021/09/06 06:20:13;;;;;;;3.88;2.60;;;;;;;20.77;66.66;102213.72;4976014;28;102578;-46
2021/09/06 06:22:40;;;;;;;3.95;3.15;;;;;;;20.79;66.70;102221.69;4975838;28;102901;-46
2021/09/06 06:25:07;;;;;;;4.43;2.97;;;;;;;20.78;66.69;102218.09;4973866;28;104794;-46
2021/09/06 06:27:34;;;;;;;5.88;2.65;;;;;;;20.78;66.66;102220.88;4972037;28;102856;-48
2021/09/06 06:30:01;;;;;;;4.80;2.53;;;;;;;20.79;66.54;102224.44;4974770;28;102815;-46
2021/09/06 06:32:28;;;;;;;3.67;2.80;;;;;;;20.79;66.58;102227.22;4973715;28;102832;-46
2021/09/06 06:34:56;;;;;;;4.80;2.78;;;;;;;20.81;66.60;102227.75;4957059;28;104778;-47
2021/09/06 06:37:23;;;;;;;3.50;2.67;;;;;;;20.79;66.53;102230.81;4977770;28;102619;-47
2021/09/06 06:39:50;;;;;;;5.03;3.13;;;;;;;20.80;66.67;102229.66;4974472;28;103396;-46
2021/09/06 06:42:18;;;;;;;4.15;3.20;;;;;;;20.81;66.42;102238.81;4978032;28;102988;-46
2021/09/06 06:44:45;;;;;;;3.93;2.67;;;;;;;20.80;66.33;102232.44;4975091;28;104620;-49
2021/09/06 06:47:12;;;;;;;3.67;2.92;;;;;;;20.81;66.38;102228.56;4972565;28;102528;-46
2021/09/06 06:49:38;;;;;;;3.80;2.80;;;;;;;20.82;66.43;102232.97;4972053;28;102919;-47
2021/09/06 06:52:07;;;;;;;4.35;3.10;;;;;;;20.82;66.45;102240.44;4974683;28;102728;-46
2021/09/06 06:54:35;;;;;;;3.50;2.83;;;;;;;20.83;66.42;102244.84;4969193;28;102740;-46
2021/09/06 06:57:06;;;;;;;4.30;3.17;;;;;;;20.83;66.32;102240.13;4972808;28;102263;-49
2021/09/06 06:59:34;;;;;;;4.83;3.03;;;;;;;20.83;66.31;102231.84;4976853;28;106387;-46
2021/09/06 07:02:02;;;;;;;3.38;2.83;;;;;;;20.84;66.27;102240.94;4984619;28;102661;-47
2021/09/06 07:04:31;;;;;;;5.90;3.40;;;;;;;20.84;66.35;102240.94;4989592;28;103575;-46
2021/09/06 07:06:58;;;;;;;6.63;3.17;;;;;;;20.84;66.16;102244.56;4983412;28;102153;-46
2021/09/06 07:09:26;;;;;;;4.38;3.00;;;;;;;20.85;66.38;102237.91;4982665;28;102624;-47
2021/09/06 07:11:54;;;;;;;154.88;19.98;;;;;;;20.84;66.20;102239.03;4986352;28;102536;-46
2021/09/06 07:14:23;;;;;;;9.45;4.05;;;;;;;20.86;66.17;102242.31;4985969;28;103930;-47
2021/09/06 07:16:50;;;;;;;7.05;3.00;;;;;;;20.86;66.20;102245.06;4979823;28;102148;-46
2021/09/06 07:19:17;;;;;;;3.10;2.80;;;;;;;20.86;66.02;102245.06;4990478;28;102446;-46
2021/09/06 07:21:44;;;;;;;5.45;3.35;;;;;;;20.86;65.99;102245.06;4986369;28;102626;-48
2021/09/06 07:24:10;;;;;;;4.90;3.28;;;;;;;20.87;66.07;102241.16;4987072;28;103964;-46
2021/09/06 07:26:37;;;;;;;4.78;2.92;;;;;;;20.88;66.00;102248.38;4988662;28;102792;-46
2021/09/06 07:29:05;;;;;;;6.78;2.60;;;;;;;20.88;66.04;102242.00;4986880;28;102967;-48
2021/09/06 07:31:34;;;;;;;4.35;3.20;;;;;;;20.88;65.67;102248.38;4988569;28;103664;-47
2021/09/06 07:34:01;;;;;;;3.17;2.50;;;;;;;20.89;66.00;102243.66;4995074;28;103705;-46
2021/09/06 07:36:28;;;;;;;3.60;2.90;;;;;;;20.91;65.69;102243.31;4998075;28;102149;-47
2021/09/06 07:38:55;;;;;;;6.05;2.80;;;;;;;20.90;65.85;102244.47;4994386;28;102204;-47
2021/09/06 07:41:21;;;;;;;4.38;2.75;;;;;;;20.90;65.88;102242.50;4997716;28;102480;-48
2021/09/06 07:43:48;;;;;;;4.30;3.05;;;;;;;20.91;65.62;102240.56;4985003;28;102974;-48
2021/09/06 07:46:16;;;;;;;4.22;3.03;;;;;;;20.91;65.77;102244.16;4972399;28;102700;-46
2021/09/06 07:48:43;;;;;;;3.25;2.80;;;;;;;20.91;65.61;102240.56;4987621;28;102716;-47
2021/09/06 07:51:10;;;;;;;3.85;2.70;;;;;;;20.91;65.57;102244.16;4993574;28;102616;-46
2021/09/06 07:53:37;;;;;;;7.65;3.20;;;;;;;20.91;65.41;102244.16;4990044;28;102997;-46
2021/09/06 07:56:04;;;;;;;5.22;3.67;;;;;;;20.91;65.35;102241.38;4992110;28;102327;-46
2021/09/06 07:58:31;;;;;;;4.32;2.90;;;;;;;20.91;65.19;102240.56;4987236;28;102372;-47
2021/09/06 08:00:58;;;;;;;3.67;2.97;;;;;;;20.92;65.06;102242.22;4989684;28;102279;-47
2021/09/06 08:03:26;;;;;;;5.88;2.92;;;;;;;20.92;64.97;102248.56;4988448;28;103912;-46
2021/09/06 08:05:52;;;;;;;3.80;2.90;;;;;;;20.91;65.02;102238.63;4989190;28;102599;-48
2021/09/06 08:08:19;;;;;;;8.38;2.97;;;;;;;20.93;65.17;102249.41;4987857;28;102809;-48
2021/09/06 08:10:46;;;;;;;6.53;3.42;;;;;;;20.93;65.11;102243.84;5000092;28;103740;-46
2021/09/06 08:13:13;;;;;;;5.47;2.72;;;;;;;20.94;65.20;102234.41;4986900;28;107764;-48
2021/09/06 08:15:40;;;;;;;4.22;2.42;;;;;;;20.94;65.11;102249.06;4986971;28;102569;-47
2021/09/06 08:18:07;;;;;;;4.20;2.53;;;;;;;20.96;64.97;102251.56;4988614;28;102721;-47
2021/09/06 08:20:35;;;;;;;4.18;2.50;;;;;;;20.96;64.90;102240.50;4983086;28;102932;-47
2021/09/06 08:23:02;;;;;;;4.68;3.15;;;;;;;20.96;65.01;102248.78;4985549;28;104154;-46
2021/09/06 08:25:30;;;;;;;3.38;2.88;;;;;;;20.96;64.83;102246.03;4980460;28;105740;-46
2021/09/06 08:27:56;;;;;;;2.83;2.50;;;;;;;20.97;64.89;102245.69;4982317;28;103383;-47
2021/09/06 08:30:23;;;;;;;5.60;2.70;;;;;;;20.97;64.83;102245.69;4971517;28;103438;-46
2021/09/06 08:32:50;;;;;;;2.95;2.20;;;;;;;20.99;64.84;102248.16;4986492;28;103395;-47
2021/09/06 08:35:17;;;;;;;2.95;2.33;;;;;;;20.99;65.11;102239.84;4988657;28;102571;-47
2021/09/06 08:37:45;;;;;;;2.67;2.28;;;;;;;20.99;64.76;102242.63;4985245;28;102364;-49
2021/09/06 08:40:12;;;;;;;4.07;2.30;;;;;;;20.99;64.68;102245.38;4990100;28;102430;-46
2021/09/06 08:42:39;;;;;;;3.15;2.30;;;;;;;21.00;64.71;102233.22;4989744;28;103901;-47
2021/09/06 08:45:08;;;;;;;2.63;2.30;;;;;;;20.99;64.61;102237.94;4989175;28;102672;-47
2021/09/06 08:47:36;;;;;;;2.92;2.40;;;;;;;21.00;64.67;102249.81;4982651;28;102095;-46
2021/09/06 08:50:07;;;;;;;2.20;2.00;;;;;;;21.01;64.52;102234.84;4986196;28;103380;-48
2021/09/06 08:52:34;;;;;;;4.20;2.30;;;;;;;21.01;64.68;102234.84;4979781;28;105378;-48
2021/09/06 08:55:05;;;;;;;7.57;2.75;;;;;;;21.01;64.56;102238.44;4971917;28;102694;-47
2021/09/06 08:57:32;;;;;;;3.13;2.50;;;;;;;21.00;64.62;102222.97;4987943;28;102358;-47
2021/09/06 09:00:03;;;;;;;2.83;1.90;;;;;;;21.00;64.33;102230.44;4982101;28;102916;-47
2021/09/06 09:02:33;;;;;;;4.07;1.80;;;;;;;20.97;64.18;102222.75;4983963;28;102963;-47
2021/09/06 09:05:01;;;;;;;3.00;1.75;;;;;;;20.96;63.87;102237.72;4961799;28;103248;-47
2021/09/06 09:07:29;;;;;;;3.90;1.70;;;;;;;20.94;63.67;102223.34;4978888;28;102765;-47
2021/09/06 09:09:57;;;;;;;2.30;1.80;;;;;;;20.92;63.53;102220.09;4984797;28;102897;-47
2021/09/06 09:12:26;;;;;;;3.47;1.60;;;;;;;20.90;63.71;102233.41;4985504;28;102726;-47
2021/09/06 09:14:55;;;;;;;2.53;1.45;;;;;;;20.88;63.25;102236.47;4982821;28;103328;-48
2021/09/06 09:17:34;;;;;;;4.68;1.52;;;;;;;20.86;63.07;102228.47;4982706;28;102688;-46
2021/09/06 09:20:04;;;;;;;3.08;1.77;;;;;;;20.85;62.29;102231.56;4984636;28;103643;-46
2021/09/06 09:22:34;;;;;;;4.88;1.90;;;;;;;20.83;62.64;102223.53;4985010;28;104161;-47
2021/09/06 09:25:04;;;;;;;7.72;2.08;;;;;;;20.81;62.42;102220.28;4984224;28;102523;-46
2021/09/06 09:27:34;;;;;;;2.35;1.90;;;;;;;20.79;62.04;102219.75;4987219;28;102623;-47
2021/09/06 09:30:04;;;;;;;2.63;1.85;;;;;;;20.77;61.80;102219.25;4978523;28;102406;-49
2021/09/06 09:32:35;;;;;;;10.73;2.50;;;;;;;20.76;61.49;102216.75;4982587;28;102783;-48
2021/09/06 09:35:04;;;;;;;15.10;2.38;;;;;;;20.75;61.29;102210.41;4985503;28;102707;-48
2021/09/06 09:37:31;;;;;;;22.35;2.83;;;;;;;20.75;61.15;102220.66;4986902;28;102624;-49
2021/09/06 09:40:03;;;;;;;6.53;2.30;;;;;;;20.75;60.98;102215.94;4983131;28;102523;-49
2021/09/06 09:42:33;;;;;;;11.00;2.90;;;;;;;20.75;60.97;102210.41;4984463;28;103739;-49
2021/09/06 09:45:00;;;;;;;19.63;2.50;;;;;;;20.75;60.88;102217.88;4985119;28;102682;-49
2021/09/06 09:47:27;;;;;;;15.38;3.03;;;;;;;20.75;60.84;102209.59;4985217;28;102564;-53
2021/09/06 09:49:55;;;;;;;21.90;3.03;;;;;;;20.76;60.85;102214.00;4984282;28;102806;-49
2021/09/06 09:52:23;;;;;;;13.88;2.88;;;;;;;20.75;61.18;102215.94;4975812;28;103908;-49
2021/09/06 09:54:53;;;;;;;10.18;2.63;;;;;;;20.75;61.11;102204.88;4985162;28;102165;-49
2021/09/06 09:57:25;;;;;;;7.85;2.70;;;;;;;20.75;61.08;102220.66;4981921;28;103212;-49
2021/09/06 09:59:53;;;;;;;8.35;2.13;;;;;;;20.76;61.09;102211.22;4983214;28;103151;-49
2021/09/06 10:02:24;;;;;;;7.97;2.30;;;;;;;20.77;61.13;102210.94;4981276;28;102931;-49
2021/09/06 10:04:54;;;;;;;9.05;2.20;;;;;;;20.77;61.27;102208.16;4984378;28;102646;-49
2021/09/06 10:07:24;;;;;;;7.65;2.63;;;;;;;20.79;61.20;102199.56;4981341;28;102574;-49
2021/09/06 10:09:51;;;;;;;8.68;2.60;;;;;;;20.78;61.19;102197.91;4983881;28;102662;-50
2021/09/06 10:12:20;;;;;;;7.57;2.72;;;;;;;20.78;60.91;102198.75;4979923;28;104074;-49
2021/09/06 10:14:54;;;;;;;11.20;1.95;;;;;;;20.78;60.97;102190.44;4983875;28;102253;-49
2021/09/06 10:17:35;;;;;;;4.65;2.05;;;;;;;20.79;60.82;102194.84;4983561;28;102547;-49
2021/09/06 10:20:15;;;;;;;7.70;1.83;;;;;;;20.80;61.15;102190.94;4969800;28;102507;-49
2021/09/06 10:22:43;;;;;;;5.72;2.08;;;;;;;20.81;61.07;102194.56;4984557;28;104358;-49
2021/09/06 10:25:12;;;;;;;8.63;2.37;;;;;;;20.81;60.80;102192.59;4983973;28;102484;-49
2021/09/06 10:27:50;;;;;;;9.45;2.10;;;;;;;20.81;60.76;102192.59;4986059;28;102455;-49
2021/09/06 10:30:18;;;;;;;4.47;2.13;;;;;;;20.81;61.04;102192.59;4988600;28;102179;-48
2021/09/06 10:32:48;;;;;;;6.50;2.10;;;;;;;20.82;61.13;102188.69;4988305;28;103909;-49
2021/09/06 10:35:19;;;;;;;7.82;2.10;;;;;;;20.84;61.12;102196.69;4986139;28;102649;-48
2021/09/06 10:37:47;;;;;;;6.45;2.25;;;;;;;20.83;61.34;102195.88;4982118;28;102466;-49
2021/09/06 10:40:27;;;;;;;6.72;2.10;;;;;;;20.82;61.03;102188.69;4981891;28;102602;-49
2021/09/06 10:42:54;;;;;;;3.80;2.22;;;;;;;20.82;61.29;102188.69;4985898;28;103908;-49
2021/09/06 10:45:24;;;;;;;3.70;2.10;;;;;;;20.83;61.10;102187.56;4984682;28;102513;-49
2021/09/06 10:47:58;;;;;;;3.53;1.95;;;;;;;20.83;61.03;102190.34;4981567;28;102541;-49
2021/09/06 10:50:25;;;;;;;5.93;2.28;;;;;;;20.84;61.54;102186.47;4967951;28;102771;-48
2021/09/06 10:52:51;;;;;;;7.65;2.00;;;;;;;20.84;61.23;102189.22;4981782;28;103892;-49
2021/09/06 10:55:19;;;;;;;3.95;2.10;;;;;;;20.85;61.09;102185.31;4984784;28;102746;-48
2021/09/06 10:57:47;;;;;;;2.90;1.97;;;;;;;20.83;61.26;102187.56;4986162;28;102231;-49
2021/09/06 11:00:16;;;;;;;2.28;1.58;;;;;;;20.84;61.39;102182.84;4985881;28;102516;-49
2021/09/06 11:02:44;;;;;;;3.30;1.90;;;;;;;20.82;61.21;102185.94;4980008;28;106117;-49
2021/09/06 11:05:17;;;;;;;2.65;1.52;;;;;;;20.84;61.13;102182.84;4985408;28;103062;-49
2021/09/06 11:07:44;;;;;;;2.10;1.90;;;;;;;20.84;61.33;102174.53;4986272;28;102100;-49
2021/09/06 11:10:12;;;;;;;10.88;2.00;;;;;;;20.84;61.20;102174.53;4983824;28;102187;-49
2021/09/06 11:12:40;;;;;;;5.00;1.90;;;;;;;20.85;61.52;102178.97;4985388;28;104067;-48
2021/09/06 11:15:22;;;;;;;8.38;1.80;;;;;;;20.83;61.25;102173.72;4984615;28;103621;-50
2021/09/06 11:18:10;;;;;;;12.50;2.00;;;;;;;20.83;61.39;102168.19;4982926;28;102659;-49
2021/09/06 11:20:49;;;;;;;1.88;1.45;;;;;;;20.83;61.46;102170.97;4981911;28;103432;-49